sensor_id;sensor_type;location;lat;lon;timestamp;P1;P2;P0
65574;PMS5003;52216;54.942;73.394;2023-02-15T00:00:04;12.00;11.00;4.00
65574;PMS5003;52216;54.942;73.394;2023-02-15T00:03:17;12.25;11.00;5.50
65574;PMS5003;52216;54.942;73.394;2023-02-15T00:06:20;12.00;11.25;5.00
65574;PMS5003;52216;54.942;73.394;2023-02-15T00:09:22;12.00;12.00;6.00
65574;PMS5003;52216;54.942;73.394;2023-02-15T00:12:34;14.00;12.00;6.00
65574;PMS5003;52216;54.942;73.394;2023-02-15T00:15:42;16.00;14.00;6.00
65574;PMS5003;52216;54.942;73.394;2023-02-15T00:18:44;17.00;15.25;7.25
65574;PMS5003;52216;54.942;73.394;2023-02-15T00:21:47;17.75;14.75;8.50
65574;PMS5003;52216;54.942;73.394;2023-02-15T00:24:50;17.00;14.67;8.00
65574;PMS5003;52216;54.942;73.394;2023-02-15T00:27:53;15.00;15.00;9.00
65574;PMS5003;52216;54.942;73.394;2023-02-15T00:31:09;17.67;15.33;9.33
65574;PMS5003;52216;54.942;73.394;2023-02-15T00:34:22;19.00;17.00;11.00
65574;PMS5003;52216;54.942;73.394;2023-02-15T00:37:27;16.00;15.50;11.00
65574;PMS5003;52216;54.942;73.394;2023-02-15T00:40:30;17.00;14.00;9.00
65574;PMS5003;52216;54.942;73.394;2023-02-15T00:43:37;14.67;12.00;6.00
65574;PMS5003;52216;54.942;73.394;2023-02-15T00:46:45;12.75;11.25;6.00
65574;PMS5003;52216;54.942;73.394;2023-02-15T00:49:54;11.00;11.00;4.50
65574;PMS5003;52216;54.942;73.394;2023-02-15T00:52:55;12.00;11.00;4.00
65574;PMS5003;52216;54.942;73.394;2023-02-15T00:56:39;13.60;11.80;5.00
65574;PMS5003;52216;54.942;73.394;2023-02-15T00:59:49;12.50;12.00;5.00
65574;PMS5003;52216;54.942;73.394;2023-02-15T01:02:51;12.00;11.00;5.00
65574;PMS5003;52216;54.942;73.394;2023-02-15T01:05:54;12.00;12.00;6.00
65574;PMS5003;52216;54.942;73.394;2023-02-15T01:09:04;15.00;13.75;6.00
65574;PMS5003;52216;54.942;73.394;2023-02-15T01:12:16;15.25;15.25;7.25
65574;PMS5003;52216;54.942;73.394;2023-02-15T01:15:20;17.00;15.00;7.50
65574;PMS5003;52216;54.942;73.394;2023-02-15T01:18:23;15.50;15.25;7.75
65574;PMS5003;52216;54.942;73.394;2023-02-15T01:21:37;15.00;14.25;7.25
65574;PMS5003;52216;54.942;73.394;2023-02-15T01:24:39;19.00;16.00;9.00
65574;PMS5003;52216;54.942;73.394;2023-02-15T01:27:41;16.00;14.00;7.33
65574;PMS5003;52216;54.942;73.394;2023-02-15T01:30:55;15.50;14.00;7.50
65574;PMS5003;52216;54.942;73.394;2023-02-15T01:33:58;15.00;12.33;7.00
65574;PMS5003;52216;54.942;73.394;2023-02-15T01:37:00;15.25;14.50;7.00
65574;PMS5003;52216;54.942;73.394;2023-02-15T01:40:03;18.33;17.00;10.00
65574;PMS5003;52216;54.942;73.394;2023-02-15T01:43:18;19.60;17.60;11.00
65574;PMS5003;52216;54.942;73.394;2023-02-15T01:46:36;20.75;17.50;11.00
65574;PMS5003;52216;54.942;73.394;2023-02-15T01:49:44;16.00;13.00;8.50
65574;PMS5003;52216;54.942;73.394;2023-02-15T01:52:55;16.50;14.00;8.00
65574;PMS5003;52216;54.942;73.394;2023-02-15T01:56:29;17.00;14.25;9.00
65574;PMS5003;52216;54.942;73.394;2023-02-15T01:59:32;18.50;17.00;11.00
65574;PMS5003;52216;54.942;73.394;2023-02-15T02:02:36;21.00;19.00;11.60
65574;PMS5003;52216;54.942;73.394;2023-02-15T02:05:38;21.00;18.75;11.00
65574;PMS5003;52216;54.942;73.394;2023-02-15T02:08:41;20.00;18.00;11.00
65574;PMS5003;52216;54.942;73.394;2023-02-15T02:11:53;19.44;17.89;11.00
65574;PMS5003;52216;54.942;73.394;2023-02-15T02:14:57;17.33;16.00;10.00
65574;PMS5003;52216;54.942;73.394;2023-02-15T02:37:30;12.00;11.00;4.00
65574;PMS5003;52216;54.942;73.394;2023-02-15T02:44:58;15.75;15.00;8.00
65574;PMS5003;52216;54.942;73.394;2023-02-15T02:48:00;15.50;15.00;9.75
65574;PMS5003;52216;54.942;73.394;2023-02-15T02:51:06;17.00;14.00;11.00
65574;PMS5003;52216;54.942;73.394;2023-02-15T02:54:09;12.25;12.00;7.25
65574;PMS5003;52216;54.942;73.394;2023-02-15T02:57:14;12.00;12.00;4.50
65574;PMS5003;52216;54.942;73.394;2023-02-15T03:00:17;14.00;12.00;6.00
65574;PMS5003;52216;54.942;73.394;2023-02-15T03:03:41;13.00;12.00;6.00
65574;PMS5003;52216;54.942;73.394;2023-02-15T03:09:58;15.33;14.00;7.33
65574;PMS5003;52216;54.942;73.394;2023-02-15T03:13:04;17.50;14.25;7.50
65574;PMS5003;52216;54.942;73.394;2023-02-15T03:16:07;19.00;16.33;9.33
65574;PMS5003;52216;54.942;73.394;2023-02-15T03:19:39;22.00;18.00;11.00
65574;PMS5003;52216;54.942;73.394;2023-02-15T03:22:50;18.00;17.00;9.00
65574;PMS5003;52216;54.942;73.394;2023-02-15T03:25:59;15.50;14.00;9.00
65574;PMS5003;52216;54.942;73.394;2023-02-15T03:29:09;16.75;13.00;8.00
65574;PMS5003;52216;54.942;73.394;2023-02-15T03:32:12;13.00;12.00;6.00
65574;PMS5003;52216;54.942;73.394;2023-02-15T03:35:19;14.00;11.00;5.00
65574;PMS5003;52216;54.942;73.394;2023-02-15T03:38:29;14.00;12.00;5.00
65574;PMS5003;52216;54.942;73.394;2023-02-15T03:41:38;14.00;13.00;6.00
65574;PMS5003;52216;54.942;73.394;2023-02-15T03:44:54;17.75;16.75;8.00
65574;PMS5003;52216;54.942;73.394;2023-02-15T03:48:13;19.00;18.00;9.00
65574;PMS5003;52216;54.942;73.394;2023-02-15T03:51:29;22.00;19.00;12.00
65574;PMS5003;52216;54.942;73.394;2023-02-15T03:54:41;21.00;19.00;10.00
65574;PMS5003;52216;54.942;73.394;2023-02-15T03:58:16;19.50;18.00;10.00
65574;PMS5003;52216;54.942;73.394;2023-02-15T04:01:40;15.00;14.00;8.00
65574;PMS5003;52216;54.942;73.394;2023-02-15T04:04:55;15.00;14.00;6.75
65574;PMS5003;52216;54.942;73.394;2023-02-15T04:08:13;14.00;14.00;6.00
65574;PMS5003;52216;54.942;73.394;2023-02-15T04:11:15;17.00;14.33;7.67
65574;PMS5003;52216;54.942;73.394;2023-02-15T04:14:17;17.00;16.00;8.50
65574;PMS5003;52216;54.942;73.394;2023-02-15T04:17:38;19.75;17.75;9.25
65574;PMS5003;52216;54.942;73.394;2023-02-15T04:20:46;22.00;19.00;12.00
65574;PMS5003;52216;54.942;73.394;2023-02-15T04:24:07;19.00;18.00;11.00
65574;PMS5003;52216;54.942;73.394;2023-02-15T04:27:28;20.00;17.50;11.00
65574;PMS5003;52216;54.942;73.394;2023-02-15T04:30:30;21.00;17.50;11.00
65574;PMS5003;52216;54.942;73.394;2023-02-15T04:33:42;20.75;17.00;11.00
65574;PMS5003;52216;54.942;73.394;2023-02-15T04:36:46;19.00;16.00;9.00
65574;PMS5003;52216;54.942;73.394;2023-02-15T04:39:48;20.50;17.00;9.00
65574;PMS5003;52216;54.942;73.394;2023-02-15T04:42:57;19.00;16.00;9.50
65574;PMS5003;52216;54.942;73.394;2023-02-15T04:45:59;21.00;16.50;11.00
65574;PMS5003;52216;54.942;73.394;2023-02-15T04:49:01;16.00;14.00;9.25
65574;PMS5003;52216;54.942;73.394;2023-02-15T04:52:07;15.00;13.75;8.00
65574;PMS5003;52216;54.942;73.394;2023-02-15T04:55:10;15.67;13.00;6.00
65574;PMS5003;52216;54.942;73.394;2023-02-15T04:58:13;16.00;15.00;7.67
65574;PMS5003;52216;54.942;73.394;2023-02-15T05:01:16;16.00;14.50;8.00
65574;PMS5003;52216;54.942;73.394;2023-02-15T05:04:18;19.00;18.00;8.00
65574;PMS5003;52216;54.942;73.394;2023-02-15T05:07:22;19.00;18.00;9.67
65574;PMS5003;52216;54.942;73.394;2023-02-15T05:10:24;19.25;18.00;10.00
65574;PMS5003;52216;54.942;73.394;2023-02-15T05:13:27;20.00;17.25;9.50
65574;PMS5003;52216;54.942;73.394;2023-02-15T05:16:31;19.00;16.00;10.00
65574;PMS5003;52216;54.942;73.394;2023-02-15T05:19:40;20.00;16.50;11.00
65574;PMS5003;52216;54.942;73.394;2023-02-15T05:22:42;20.00;17.50;10.00
65574;PMS5003;52216;54.942;73.394;2023-02-15T05:25:48;18.00;16.25;10.00
65574;PMS5003;52216;54.942;73.394;2023-02-15T05:29:14;21.00;19.00;10.00
65574;PMS5003;52216;54.942;73.394;2023-02-15T05:32:18;17.33;15.00;8.67
65574;PMS5003;52216;54.942;73.394;2023-02-15T05:35:21;20.00;18.00;10.00
65574;PMS5003;52216;54.942;73.394;2023-02-15T05:38:25;18.00;17.00;10.00
65574;PMS5003;52216;54.942;73.394;2023-02-15T05:41:30;19.00;17.00;9.50
65574;PMS5003;52216;54.942;73.394;2023-02-15T05:44:42;18.00;16.50;10.00
65574;PMS5003;52216;54.942;73.394;2023-02-15T05:47:56;20.00;18.00;10.00
65574;PMS5003;52216;54.942;73.394;2023-02-15T05:51:11;18.00;14.75;6.25
65574;PMS5003;52216;54.942;73.394;2023-02-15T05:54:17;18.25;15.00;6.00
65574;PMS5003;52216;54.942;73.394;2023-02-15T05:57:19;19.75;15.50;7.50
65574;PMS5003;52216;54.942;73.394;2023-02-15T06:00:21;18.00;15.00;7.00
65574;PMS5003;52216;54.942;73.394;2023-02-15T06:03:26;18.33;14.33;6.00
65574;PMS5003;52216;54.942;73.394;2023-02-15T06:06:29;18.00;15.50;8.00
65574;PMS5003;52216;54.942;73.394;2023-02-15T06:09:33;18.00;14.67;7.00
65574;PMS5003;52216;54.942;73.394;2023-02-15T06:12:36;19.00;16.00;8.00
65574;PMS5003;52216;54.942;73.394;2023-02-15T06:15:40;20.00;17.00;10.00
65574;PMS5003;52216;54.942;73.394;2023-02-15T06:18:42;20.00;17.00;10.00
65574;PMS5003;52216;54.942;73.394;2023-02-15T06:21:45;18.00;15.00;8.00
65574;PMS5003;52216;54.942;73.394;2023-02-15T06:24:48;18.75;16.75;8.00
65574;PMS5003;52216;54.942;73.394;2023-02-15T06:27:51;17.00;15.00;7.00
65574;PMS5003;52216;54.942;73.394;2023-02-15T06:31:01;16.00;15.00;6.50
65574;PMS5003;52216;54.942;73.394;2023-02-15T06:34:33;20.00;17.50;8.50
65574;PMS5003;52216;54.942;73.394;2023-02-15T06:37:36;19.00;17.00;10.75
65574;PMS5003;52216;54.942;73.394;2023-02-15T06:40:43;17.00;15.00;8.00
65574;PMS5003;52216;54.942;73.394;2023-02-15T06:43:46;15.00;15.00;7.00
65574;PMS5003;52216;54.942;73.394;2023-02-15T06:46:48;16.25;15.00;8.00
65574;PMS5003;52216;54.942;73.394;2023-02-15T06:49:50;20.00;17.67;8.00
65574;PMS5003;52216;54.942;73.394;2023-02-15T06:52:58;19.00;17.00;8.00
65574;PMS5003;52216;54.942;73.394;2023-02-15T06:56:01;19.00;16.25;8.00
65574;PMS5003;52216;54.942;73.394;2023-02-15T06:59:31;19.00;17.00;8.00
65574;PMS5003;52216;54.942;73.394;2023-02-15T07:02:43;19.00;17.00;8.00
65574;PMS5003;52216;54.942;73.394;2023-02-15T07:05:46;21.00;19.00;10.00
65574;PMS5003;52216;54.942;73.394;2023-02-15T07:08:50;21.75;19.00;10.50
65574;PMS5003;52216;54.942;73.394;2023-02-15T07:11:53;23.00;19.00;12.00
65574;PMS5003;52216;54.942;73.394;2023-02-15T07:15:15;24.00;20.00;12.00
65574;PMS5003;52216;54.942;73.394;2023-02-15T07:18:17;19.00;18.00;12.00
65574;PMS5003;52216;54.942;73.394;2023-02-15T07:21:20;25.00;20.00;11.67
65574;PMS5003;52216;54.942;73.394;2023-02-15T07:24:53;27.00;21.00;12.50
65574;PMS5003;52216;54.942;73.394;2023-02-15T07:27:56;23.00;19.50;12.00
65574;PMS5003;52216;54.942;73.394;2023-02-15T07:31:03;21.00;19.00;10.00
65574;PMS5003;52216;54.942;73.394;2023-02-15T07:34:06;23.00;19.00;12.00
65574;PMS5003;52216;54.942;73.394;2023-02-15T07:37:12;21.33;19.00;12.00
65574;PMS5003;52216;54.942;73.394;2023-02-15T07:40:25;21.67;19.00;11.00
65574;PMS5003;52216;54.942;73.394;2023-02-15T07:43:35;23.00;19.00;11.00
65574;PMS5003;52216;54.942;73.394;2023-02-15T07:46:39;22.75;19.75;11.00
65574;PMS5003;52216;54.942;73.394;2023-02-15T07:49:42;22.00;19.00;12.00
65574;PMS5003;52216;54.942;73.394;2023-02-15T07:52:44;18.00;15.00;9.00
65574;PMS5003;52216;54.942;73.394;2023-02-15T07:55:47;17.00;14.00;8.00
65574;PMS5003;52216;54.942;73.394;2023-02-15T07:58:50;16.00;14.33;7.00
65574;PMS5003;52216;54.942;73.394;2023-02-15T08:02:02;16.00;14.00;7.00
65574;PMS5003;52216;54.942;73.394;2023-02-15T08:05:15;15.00;15.00;8.00
65574;PMS5003;52216;54.942;73.394;2023-02-15T08:08:19;12.25;12.00;6.00
65574;PMS5003;52216;54.942;73.394;2023-02-15T08:11:34;15.67;13.00;5.00
65574;PMS5003;52216;54.942;73.394;2023-02-15T08:14:41;17.00;14.00;6.00
65574;PMS5003;52216;54.942;73.394;2023-02-15T08:17:43;18.00;16.00;7.00
65574;PMS5003;52216;54.942;73.394;2023-02-15T08:20:49;17.00;14.00;5.00
65574;PMS5003;52216;54.942;73.394;2023-02-15T08:23:51;15.50;14.00;5.50
65574;PMS5003;52216;54.942;73.394;2023-02-15T08:27:04;16.00;13.75;6.00
65574;PMS5003;52216;54.942;73.394;2023-02-15T08:30:06;16.25;15.25;7.25
65574;PMS5003;52216;54.942;73.394;2023-02-15T08:33:20;20.00;17.33;8.00
65574;PMS5003;52216;54.942;73.394;2023-02-15T08:36:24;20.50;18.25;9.00
65574;PMS5003;52216;54.942;73.394;2023-02-15T08:39:27;18.33;18.00;8.00
65574;PMS5003;52216;54.942;73.394;2023-02-15T08:42:32;16.00;16.00;6.00
65574;PMS5003;52216;54.942;73.394;2023-02-15T08:45:35;18.00;17.75;7.50
65574;PMS5003;52216;54.942;73.394;2023-02-15T08:48:37;20.00;17.00;9.00
65574;PMS5003;52216;54.942;73.394;2023-02-15T08:51:43;19.33;18.67;9.00
65574;PMS5003;52216;54.942;73.394;2023-02-15T08:54:46;17.00;16.00;8.00
65574;PMS5003;52216;54.942;73.394;2023-02-15T08:57:53;14.25;14.00;5.00
65574;PMS5003;52216;54.942;73.394;2023-02-15T09:01:14;18.00;15.00;5.50
65574;PMS5003;52216;54.942;73.394;2023-02-15T09:04:30;14.00;12.33;5.00
65574;PMS5003;52216;54.942;73.394;2023-02-15T09:07:42;14.00;12.00;5.00
65574;PMS5003;52216;54.942;73.394;2023-02-15T09:10:45;15.50;13.00;5.00
65574;PMS5003;52216;54.942;73.394;2023-02-15T09:13:53;16.25;14.00;5.00
65574;PMS5003;52216;54.942;73.394;2023-02-15T09:16:56;16.00;13.00;5.00
65574;PMS5003;52216;54.942;73.394;2023-02-15T09:19:58;14.00;12.00;4.67
65574;PMS5003;52216;54.942;73.394;2023-02-15T09:23:00;15.33;13.00;6.00
65574;PMS5003;52216;54.942;73.394;2023-02-15T09:26:09;15.00;12.00;5.75
65574;PMS5003;52216;54.942;73.394;2023-02-15T09:29:11;13.00;12.00;4.00
65574;PMS5003;52216;54.942;73.394;2023-02-15T09:32:14;14.00;12.00;5.00
65574;PMS5003;52216;54.942;73.394;2023-02-15T09:35:24;13.33;12.33;5.00
65574;PMS5003;52216;54.942;73.394;2023-02-15T09:38:27;14.00;12.00;3.67
65574;PMS5003;52216;54.942;73.394;2023-02-15T09:47:56;12.33;12.00;3.67
65574;PMS5003;52216;54.942;73.394;2023-02-15T09:51:26;13.00;12.00;3.00
65574;PMS5003;52216;54.942;73.394;2023-02-15T09:54:36;12.00;11.50;3.50
65574;PMS5003;52216;54.942;73.394;2023-02-15T10:07:35;11.00;10.00;4.00
65574;PMS5003;52216;54.942;73.394;2023-02-15T10:20:23;13.00;11.00;4.00
65574;PMS5003;52216;54.942;73.394;2023-02-15T10:26:48;12.00;10.00;4.00
65574;PMS5003;52216;54.942;73.394;2023-02-15T10:33:02;11.25;8.75;4.00
65574;PMS5003;52216;54.942;73.394;2023-02-15T10:36:07;15.00;12.00;5.00
65574;PMS5003;52216;54.942;73.394;2023-02-15T11:06:32;16.00;12.00;7.00
65574;PMS5003;52216;54.942;73.394;2023-02-15T11:09:37;16.75;15.00;6.00
65574;PMS5003;52216;54.942;73.394;2023-02-15T11:12:47;17.00;14.00;7.00
65574;PMS5003;52216;54.942;73.394;2023-02-15T11:16:06;16.00;13.00;7.00
65574;PMS5003;52216;54.942;73.394;2023-02-15T11:19:21;15.00;14.00;6.00
65574;PMS5003;52216;54.942;73.394;2023-02-15T11:22:24;12.00;10.25;4.75
65574;PMS5003;52216;54.942;73.394;2023-02-15T11:25:29;13.75;12.25;4.25
65574;PMS5003;52216;54.942;73.394;2023-02-15T11:28:45;12.00;11.00;4.00
65574;PMS5003;52216;54.942;73.394;2023-02-15T11:31:56;12.00;12.00;5.00
65574;PMS5003;52216;54.942;73.394;2023-02-15T11:38:16;14.00;11.75;5.25
65574;PMS5003;52216;54.942;73.394;2023-02-15T11:41:31;14.00;13.00;7.00
65574;PMS5003;52216;54.942;73.394;2023-02-15T11:44:54;14.00;13.00;6.00
65574;PMS5003;52216;54.942;73.394;2023-02-15T11:47:59;12.00;12.00;3.50
65574;PMS5003;52216;54.942;73.394;2023-02-15T11:51:01;12.25;11.00;4.00
65574;PMS5003;52216;54.942;73.394;2023-02-15T11:54:04;12.00;12.00;4.00
65574;PMS5003;52216;54.942;73.394;2023-02-15T11:57:19;13.00;12.00;5.00
65574;PMS5003;52216;54.942;73.394;2023-02-15T12:03:40;15.33;15.00;7.00
65574;PMS5003;52216;54.942;73.394;2023-02-15T12:06:59;15.50;15.00;6.25
65574;PMS5003;52216;54.942;73.394;2023-02-15T12:10:04;18.25;17.00;7.00
65574;PMS5003;52216;54.942;73.394;2023-02-15T12:13:19;15.00;13.00;6.00
65574;PMS5003;52216;54.942;73.394;2023-02-15T12:16:23;16.33;14.33;5.00
65574;PMS5003;52216;54.942;73.394;2023-02-15T12:19:33;16.00;14.00;6.00
65574;PMS5003;52216;54.942;73.394;2023-02-15T12:26:04;15.00;12.75;5.00
65574;PMS5003;52216;54.942;73.394;2023-02-15T12:29:15;15.00;14.00;6.00
65574;PMS5003;52216;54.942;73.394;2023-02-15T12:32:27;17.00;16.00;8.00
65574;PMS5003;52216;54.942;73.394;2023-02-15T12:35:31;15.00;13.25;5.50
65574;PMS5003;52216;54.942;73.394;2023-02-15T12:38:40;15.50;13.75;5.00
65574;PMS5003;52216;54.942;73.394;2023-02-15T12:42:02;17.00;14.00;5.00
65574;PMS5003;52216;54.942;73.394;2023-02-15T12:45:27;17.50;14.50;5.00
65574;PMS5003;52216;54.942;73.394;2023-02-15T12:48:28;17.00;15.00;6.00
65574;PMS5003;52216;54.942;73.394;2023-02-15T12:51:35;17.00;14.67;7.00
65574;PMS5003;52216;54.942;73.394;2023-02-15T12:54:49;17.00;15.00;5.75
65574;PMS5003;52216;54.942;73.394;2023-02-15T12:58:16;11.50;11.25;4.00
65574;PMS5003;52216;54.942;73.394;2023-02-15T13:01:22;13.00;12.00;3.25
65574;PMS5003;52216;54.942;73.394;2023-02-15T13:04:31;14.75;12.25;5.00
65574;PMS5003;52216;54.942;73.394;2023-02-15T13:07:51;13.00;11.50;4.50
65574;PMS5003;52216;54.942;73.394;2023-02-15T13:14:16;12.00;11.75;5.00
65574;PMS5003;52216;54.942;73.394;2023-02-15T13:17:32;11.75;11.00;4.25
65574;PMS5003;52216;54.942;73.394;2023-02-15T13:20:36;14.00;14.00;6.00
65574;PMS5003;52216;54.942;73.394;2023-02-15T13:23:44;14.00;12.00;5.00
65574;PMS5003;52216;54.942;73.394;2023-02-15T13:26:56;14.00;12.00;5.00
65574;PMS5003;52216;54.942;73.394;2023-02-15T13:30:00;13.00;13.00;6.00
65574;PMS5003;52216;54.942;73.394;2023-02-15T13:33:05;15.00;13.00;6.00
65574;PMS5003;52216;54.942;73.394;2023-02-15T13:36:18;13.00;12.00;5.00
65574;PMS5003;52216;54.942;73.394;2023-02-15T13:39:27;13.00;13.00;6.00
65574;PMS5003;52216;54.942;73.394;2023-02-15T13:52:30;13.00;11.50;4.75
65574;PMS5003;52216;54.942;73.394;2023-02-15T13:55:50;13.00;13.00;5.67
65574;PMS5003;52216;54.942;73.394;2023-02-15T13:59:02;14.00;13.00;4.75
65574;PMS5003;52216;54.942;73.394;2023-02-15T14:05:42;12.00;11.00;5.00
65574;PMS5003;52216;54.942;73.394;2023-02-15T14:21:39;16.00;12.00;5.00
65574;PMS5003;52216;54.942;73.394;2023-02-15T14:27:54;12.00;12.00;5.00
65574;PMS5003;52216;54.942;73.394;2023-02-15T14:31:09;11.50;11.25;5.25
65574;PMS5003;52216;54.942;73.394;2023-02-15T14:34:27;14.75;13.50;5.25
65574;PMS5003;52216;54.942;73.394;2023-02-15T14:47:36;15.00;14.67;7.00
65574;PMS5003;52216;54.942;73.394;2023-02-15T14:50:43;12.00;12.00;5.00
65574;PMS5003;52216;54.942;73.394;2023-02-15T14:53:46;13.00;11.00;4.33
65574;PMS5003;52216;54.942;73.394;2023-02-15T15:00:12;14.00;11.50;5.00
65574;PMS5003;52216;54.942;73.394;2023-02-15T15:03:33;13.50;12.00;5.00
65574;PMS5003;52216;54.942;73.394;2023-02-15T15:06:42;13.50;11.50;5.00
65574;PMS5003;52216;54.942;73.394;2023-02-15T15:22:48;12.00;11.00;5.00
65574;PMS5003;52216;54.942;73.394;2023-02-15T15:25:56;13.00;12.00;5.00
65574;PMS5003;52216;54.942;73.394;2023-02-15T15:28:59;16.33;13.33;6.00
65574;PMS5003;52216;54.942;73.394;2023-02-15T15:32:02;18.00;15.50;7.00
65574;PMS5003;52216;54.942;73.394;2023-02-15T15:41:56;16.00;15.00;7.67
65574;PMS5003;52216;54.942;73.394;2023-02-15T15:48:31;17.86;17.00;10.29
65574;PMS5003;52216;54.942;73.394;2023-02-15T15:51:35;20.00;18.00;11.00
65574;PMS5003;52216;54.942;73.394;2023-02-15T15:54:42;18.00;16.50;11.00
65574;PMS5003;52216;54.942;73.394;2023-02-15T15:57:45;16.75;15.00;7.75
65574;PMS5003;52216;54.942;73.394;2023-02-15T16:00:51;16.25;15.00;7.25
65574;PMS5003;52216;54.942;73.394;2023-02-15T16:03:59;16.50;15.00;8.00
65574;PMS5003;52216;54.942;73.394;2023-02-15T16:10:21;16.67;16.00;7.00
65574;PMS5003;52216;54.942;73.394;2023-02-15T16:13:30;17.00;16.00;8.25
65574;PMS5003;52216;54.942;73.394;2023-02-15T16:16:46;16.00;15.25;8.00
65574;PMS5003;52216;54.942;73.394;2023-02-15T16:19:50;15.00;15.00;9.00
65574;PMS5003;52216;54.942;73.394;2023-02-15T16:29:29;19.00;17.50;8.75
65574;PMS5003;52216;54.942;73.394;2023-02-15T16:32:36;18.00;17.50;10.00
65574;PMS5003;52216;54.942;73.394;2023-02-15T16:35:40;20.00;18.00;10.00
65574;PMS5003;52216;54.942;73.394;2023-02-15T16:41:55;17.00;16.00;8.00
65574;PMS5003;52216;54.942;73.394;2023-02-15T16:45:00;19.00;18.00;8.00
65574;PMS5003;52216;54.942;73.394;2023-02-15T16:48:10;20.00;18.00;10.00
65574;PMS5003;52216;54.942;73.394;2023-02-15T16:51:18;22.50;18.00;10.25
65574;PMS5003;52216;54.942;73.394;2023-02-15T16:54:41;21.50;17.00;16.00
65574;PMS5003;52216;54.942;73.394;2023-02-15T16:57:44;18.00;16.00;9.50
65574;PMS5003;52216;54.942;73.394;2023-02-15T17:00:47;18.00;16.25;8.00
65574;PMS5003;52216;54.942;73.394;2023-02-15T17:07:20;16.00;13.00;6.00
65574;PMS5003;52216;54.942;73.394;2023-02-15T17:10:27;14.25;13.00;5.00
65574;PMS5003;52216;54.942;73.394;2023-02-15T17:13:30;14.50;14.00;5.00
65574;PMS5003;52216;54.942;73.394;2023-02-15T17:16:44;16.67;14.67;6.33
65574;PMS5003;52216;54.942;73.394;2023-02-15T17:19:55;19.75;18.00;8.75
65574;PMS5003;52216;54.942;73.394;2023-02-15T17:22:58;18.75;18.00;10.00
65574;PMS5003;52216;54.942;73.394;2023-02-15T17:26:01;20.00;18.00;10.00
65574;PMS5003;52216;54.942;73.394;2023-02-15T17:32:32;18.00;18.00;9.00
65574;PMS5003;52216;54.942;73.394;2023-02-15T17:35:41;20.00;18.00;10.00
65574;PMS5003;52216;54.942;73.394;2023-02-15T17:42:00;19.00;17.00;9.00
65574;PMS5003;52216;54.942;73.394;2023-02-15T17:45:04;16.33;14.00;8.00
65574;PMS5003;52216;54.942;73.394;2023-02-15T17:48:15;17.50;15.50;9.00
65574;PMS5003;52216;54.942;73.394;2023-02-15T17:51:30;20.00;17.25;10.00
65574;PMS5003;52216;54.942;73.394;2023-02-15T17:54:33;19.00;18.00;11.00
65574;PMS5003;52216;54.942;73.394;2023-02-15T17:57:54;18.00;16.00;11.00
65574;PMS5003;52216;54.942;73.394;2023-02-15T18:00:57;18.50;15.50;10.00
65574;PMS5003;52216;54.942;73.394;2023-02-15T18:04:25;20.25;18.00;11.00
65574;PMS5003;52216;54.942;73.394;2023-02-15T18:07:55;21.00;17.50;10.00
65574;PMS5003;52216;54.942;73.394;2023-02-15T18:11:16;20.50;18.75;10.75
65574;PMS5003;52216;54.942;73.394;2023-02-15T18:14:41;23.00;20.00;12.00
65574;PMS5003;52216;54.942;73.394;2023-02-15T18:17:54;21.00;18.00;11.00
65574;PMS5003;52216;54.942;73.394;2023-02-15T18:20:58;20.00;18.00;11.00
65574;PMS5003;52216;54.942;73.394;2023-02-15T18:24:15;23.00;19.00;11.00
65574;PMS5003;52216;54.942;73.394;2023-02-15T18:27:18;20.00;16.00;11.00
65574;PMS5003;52216;54.942;73.394;2023-02-15T18:30:32;19.00;15.50;9.00
65574;PMS5003;52216;54.942;73.394;2023-02-15T18:33:49;18.00;15.00;7.25
65574;PMS5003;52216;54.942;73.394;2023-02-15T18:36:52;16.00;14.00;6.50
65574;PMS5003;52216;54.942;73.394;2023-02-15T18:39:56;18.00;14.00;5.00
65574;PMS5003;52216;54.942;73.394;2023-02-15T18:43:00;18.00;15.00;6.00
65574;PMS5003;52216;54.942;73.394;2023-02-15T18:46:03;16.67;15.00;6.00
65574;PMS5003;52216;54.942;73.394;2023-02-15T18:49:06;16.50;15.00;6.00
65574;PMS5003;52216;54.942;73.394;2023-02-15T18:52:16;16.00;14.00;6.00
65574;PMS5003;52216;54.942;73.394;2023-02-15T18:55:20;16.00;14.00;5.00
65574;PMS5003;52216;54.942;73.394;2023-02-15T18:58:30;16.00;14.00;5.75
65574;PMS5003;52216;54.942;73.394;2023-02-15T19:01:37;14.00;13.33;5.00
65574;PMS5003;52216;54.942;73.394;2023-02-15T19:04:40;15.25;14.50;5.75
65574;PMS5003;52216;54.942;73.394;2023-02-15T19:07:43;18.67;15.00;8.00
65574;PMS5003;52216;54.942;73.394;2023-02-15T19:11:00;22.75;17.75;10.25
65574;PMS5003;52216;54.942;73.394;2023-02-15T19:14:02;21.25;19.00;11.00
65574;PMS5003;52216;54.942;73.394;2023-02-15T19:17:13;18.25;16.00;8.00
65574;PMS5003;52216;54.942;73.394;2023-02-15T19:20:16;17.25;15.75;6.50
65574;PMS5003;52216;54.942;73.394;2023-02-15T19:23:28;15.00;13.50;6.00
65574;PMS5003;52216;54.942;73.394;2023-02-15T19:26:34;13.00;13.00;4.75
65574;PMS5003;52216;54.942;73.394;2023-02-15T19:29:45;13.00;11.67;4.00
65574;PMS5003;52216;54.942;73.394;2023-02-15T19:32:53;13.00;13.00;5.00
65574;PMS5003;52216;54.942;73.394;2023-02-15T19:35:55;13.75;12.25;5.00
65574;PMS5003;52216;54.942;73.394;2023-02-15T19:38:58;15.00;13.00;6.00
65574;PMS5003;52216;54.942;73.394;2023-02-15T19:42:12;15.00;13.00;5.00
65574;PMS5003;52216;54.942;73.394;2023-02-15T19:45:16;15.00;12.00;6.00
65574;PMS5003;52216;54.942;73.394;2023-02-15T19:48:18;15.00;13.00;6.00
65574;PMS5003;52216;54.942;73.394;2023-02-15T19:51:21;15.00;13.50;6.75
65574;PMS5003;52216;54.942;73.394;2023-02-15T19:54:34;15.00;14.00;6.00
65574;PMS5003;52216;54.942;73.394;2023-02-15T19:57:37;13.33;13.00;6.00
65574;PMS5003;52216;54.942;73.394;2023-02-15T20:00:45;16.00;14.00;6.00
65574;PMS5003;52216;54.942;73.394;2023-02-15T20:03:48;14.00;13.00;5.00
65574;PMS5003;52216;54.942;73.394;2023-02-15T20:06:59;13.00;11.67;6.00
65574;PMS5003;52216;54.942;73.394;2023-02-15T20:10:02;15.33;13.67;8.00
65574;PMS5003;52216;54.942;73.394;2023-02-15T20:13:04;13.00;13.00;5.75
65574;PMS5003;52216;54.942;73.394;2023-02-15T20:16:07;13.00;12.00;4.50
65574;PMS5003;52216;54.942;73.394;2023-02-15T20:19:10;15.67;13.00;6.00
65574;PMS5003;52216;54.942;73.394;2023-02-15T20:22:21;14.25;12.25;6.00
65574;PMS5003;52216;54.942;73.394;2023-02-15T20:25:29;18.00;15.00;8.67
65574;PMS5003;52216;54.942;73.394;2023-02-15T20:28:32;16.00;14.25;10.00
65574;PMS5003;52216;54.942;73.394;2023-02-15T20:31:35;17.25;15.25;8.00
65574;PMS5003;52216;54.942;73.394;2023-02-15T20:34:47;17.75;15.75;7.25
65574;PMS5003;52216;54.942;73.394;2023-02-15T20:37:54;18.00;15.00;8.00
65574;PMS5003;52216;54.942;73.394;2023-02-15T20:40:58;15.67;14.33;8.00